createdAt,value
2022-09-21T00:01:18.175Z,94.50
2022-09-21T00:03:45.717Z,94.50
2022-09-21T00:06:13.727Z,94.50
2022-09-21T00:08:40.552Z,94.40
2022-09-21T00:11:08.760Z,94.40
2022-09-21T00:13:37.839Z,94.40
2022-09-21T00:16:08.527Z,94.40
2022-09-21T00:18:36.461Z,94.40
2022-09-21T00:21:08.375Z,94.40
2022-09-21T00:23:36.430Z,94.30
2022-09-21T00:26:17.829Z,94.20
2022-09-21T00:28:44.974Z,94.20
2022-09-21T00:31:15.372Z,94.20
2022-09-21T00:33:43.600Z,94.30
2022-09-21T00:36:13.666Z,94.30
2022-09-21T00:38:40.753Z,94.20
2022-09-21T00:41:09.413Z,94.20
2022-09-21T00:43:47.795Z,94.10
2022-09-21T00:46:29.204Z,94.20
2022-09-21T00:48:57.308Z,94.20
2022-09-21T00:51:25.015Z,94.20
2022-09-21T00:53:59.089Z,94.30
2022-09-21T00:56:26.511Z,94.30
2022-09-21T00:58:54.863Z,94.30
2022-09-21T01:01:22.228Z,94.20
2022-09-21T01:03:51.365Z,94.30
2022-09-21T01:06:21.153Z,94.20
2022-09-21T01:08:52.783Z,94.40
2022-09-21T01:11:38.293Z,94.40
2022-09-21T01:14:23.116Z,94.40
2022-09-21T01:16:56.059Z,94.40
2022-09-21T01:19:51.063Z,94.40
2022-09-21T01:22:37.618Z,94.50
2022-09-21T01:25:27.941Z,94.50
2022-09-21T01:28:21.695Z,94.40
2022-09-21T01:30:52.263Z,94.50
2022-09-21T01:33:27.307Z,94.50
2022-09-21T01:36:05.624Z,94.50
2022-09-21T01:38:38.794Z,94.40
2022-09-21T01:41:08.030Z,94.40
2022-09-21T01:43:39.523Z,94.50
2022-09-21T01:46:10.925Z,94.50
2022-09-21T01:48:41.817Z,94.60
2022-09-21T01:51:13.851Z,94.60
2022-09-21T01:53:55.201Z,94.60
2022-09-21T01:56:46.606Z,94.60
2022-09-21T01:59:25.783Z,94.70
2022-09-21T02:01:57.581Z,94.70
2022-09-21T02:04:24.736Z,94.80
2022-09-21T02:06:51.737Z,94.80
2022-09-21T02:09:19.295Z,94.80
2022-09-21T02:11:46.199Z,94.80
2022-09-21T02:14:21.115Z,94.80
2022-09-21T02:17:19.449Z,94.80
2022-09-21T02:20:15.113Z,94.70
2022-09-21T02:22:54.889Z,94.70
2022-09-21T02:25:29.634Z,94.70
2022-09-21T02:28:06.343Z,94.70
2022-09-21T02:30:35.363Z,94.70
2022-09-21T02:33:19.770Z,94.70
2022-09-21T02:36:11.764Z,94.80
2022-09-21T02:38:52.375Z,94.80
2022-09-21T02:42:01.919Z,94.80
2022-09-21T02:44:47.715Z,94.70
2022-09-21T02:47:24.328Z,94.70
2022-09-21T02:49:58.757Z,94.70
2022-09-21T02:52:26.420Z,94.70
2022-09-21T02:54:55.105Z,94.80
2022-09-21T02:57:23.533Z,94.70
2022-09-21T02:59:51.097Z,94.70
2022-09-21T03:02:17.825Z,94.70
2022-09-21T03:04:47.895Z,94.70
2022-09-21T03:07:18.091Z,94.70
2022-09-21T03:09:45.216Z,94.70
2022-09-21T03:12:12.008Z,94.70
2022-09-21T03:14:39.140Z,94.70
2022-09-21T03:17:05.883Z,94.70
2022-09-21T03:19:32.543Z,94.70
2022-09-21T03:21:59.725Z,94.70
2022-09-21T03:24:44.875Z,94.70
2022-09-21T03:27:12.504Z,94.70
2022-09-21T03:29:39.195Z,94.60
2022-09-21T03:32:06.498Z,94.60
2022-09-21T03:34:34.253Z,94.60
2022-09-21T03:37:02.094Z,94.60
2022-09-21T03:39:28.976Z,94.50
2022-09-21T03:41:58.479Z,94.50
2022-09-21T03:44:26.730Z,94.60
2022-09-21T03:46:53.841Z,94.50
2022-09-21T03:49:20.972Z,94.50
2022-09-21T03:51:47.953Z,94.60
2022-09-21T03:54:14.866Z,94.60
2022-09-21T03:56:41.753Z,94.60
2022-09-21T03:59:13.184Z,94.50
2022-09-21T04:01:40.842Z,94.50
2022-09-21T04:04:07.664Z,94.50
2022-09-21T04:06:34.783Z,94.50
2022-09-21T04:09:03.031Z,94.50
2022-09-21T04:11:30.072Z,94.40
2022-09-21T04:13:57.337Z,94.40
2022-09-21T04:16:25.499Z,94.40
2022-09-21T04:18:52.379Z,94.40
2022-09-21T04:21:19.666Z,94.40
2022-09-21T04:23:46.641Z,94.40
2022-09-21T04:26:41.085Z,94.40
2022-09-21T04:29:07.834Z,94.40
2022-09-21T04:31:35.055Z,94.40
2022-09-21T04:34:01.734Z,94.40
2022-09-21T04:36:32.089Z,94.40
2022-09-21T04:39:02.571Z,94.40
2022-09-21T04:41:29.336Z,94.30
2022-09-21T04:43:56.156Z,94.30
2022-09-21T04:46:23.361Z,94.20
2022-09-21T04:48:50.127Z,94.20
2022-09-21T04:51:17.539Z,94.20
2022-09-21T04:53:44.980Z,94.30
2022-09-21T04:56:14.847Z,94.30
2022-09-21T04:58:41.680Z,94.30
2022-09-21T05:01:08.648Z,94.20
2022-09-21T05:03:35.587Z,94.20
2022-09-21T05:06:02.567Z,94.30
2022-09-21T05:08:47.707Z,94.30
2022-09-21T05:11:19.002Z,94.30
2022-09-21T05:13:46.664Z,94.20
2022-09-21T05:16:14.456Z,94.20
2022-09-21T05:18:41.206Z,94.20
2022-09-21T05:21:07.995Z,94.20
2022-09-21T05:23:34.936Z,94.30
2022-09-21T05:26:01.727Z,94.30
2022-09-21T05:28:28.910Z,94.30
2022-09-21T05:31:18.036Z,94.30
2022-09-21T05:33:52.312Z,94.20
2022-09-21T05:36:45.376Z,94.30
2022-09-21T05:39:12.704Z,94.30
2022-09-21T05:41:39.841Z,94.30
2022-09-21T05:44:07.111Z,94.30
2022-09-21T05:46:43.084Z,94.30
2022-09-21T05:49:44.904Z,94.30
2022-09-21T05:52:35.942Z,94.30
2022-09-21T05:55:39.898Z,94.40
2022-09-21T05:58:13.753Z,94.40
2022-09-21T06:00:57.739Z,94.50
2022-09-21T06:03:29.289Z,94.40
2022-09-21T06:05:57.019Z,94.50
2022-09-21T06:08:24.701Z,94.50
2022-09-21T06:10:52.275Z,94.50
2022-09-21T06:13:19.220Z,94.60
2022-09-21T06:15:46.112Z,94.60
2022-09-21T06:18:17.518Z,94.60
2022-09-21T06:20:44.645Z,94.60
2022-09-21T06:23:15.495Z,94.60
2022-09-21T06:25:42.287Z,94.70
2022-09-21T06:28:13.403Z,94.70
2022-09-21T06:30:42.851Z,94.70
2022-09-21T06:33:09.924Z,94.80
2022-09-21T06:35:37.109Z,94.80
2022-09-21T06:38:07.078Z,94.80
2022-09-21T06:40:36.133Z,94.90
2022-09-21T06:43:04.496Z,94.90
2022-09-21T06:45:31.284Z,94.90
2022-09-21T06:47:58.874Z,94.90
2022-09-21T06:50:25.712Z,95.00
2022-09-21T06:52:52.425Z,95.00
2022-09-21T06:55:19.672Z,95.10
2022-09-21T06:57:46.431Z,95.10
2022-09-21T07:00:14.228Z,95.20
2022-09-21T07:02:45.461Z,95.20
2022-09-21T07:05:12.892Z,95.20
2022-09-21T07:07:40.412Z,95.30
2022-09-21T07:10:13.090Z,95.30
2022-09-21T07:12:43.683Z,95.40
2022-09-21T07:15:10.899Z,95.40
2022-09-21T07:17:39.422Z,95.50
2022-09-21T07:20:08.041Z,95.50
2022-09-21T07:22:35.743Z,95.60
2022-09-21T07:25:04.320Z,95.60
2022-09-21T07:27:32.395Z,95.60
2022-09-21T07:29:59.244Z,95.50
2022-09-21T07:32:26.213Z,90.80
2022-09-21T07:34:56.451Z,90.80
2022-09-21T07:37:27.234Z,90.30
2022-09-21T07:39:54.587Z,88.50
2022-09-21T07:42:22.873Z,86.30
2022-09-21T07:44:50.956Z,86.70
2022-09-21T07:47:17.988Z,83.50
2022-09-21T07:49:47.051Z,79.80
2022-09-21T07:52:15.399Z,77.40
2022-09-21T07:54:42.130Z,74.20
2022-09-21T07:57:27.392Z,69.90
2022-09-21T07:59:56.480Z,64.90
2022-09-21T08:02:23.310Z,55.30
2022-09-21T08:04:50.124Z,53.80
2022-09-21T08:07:16.839Z,52.80
2022-09-21T08:09:43.536Z,52.70
2022-09-21T08:12:11.059Z,46.90
2022-09-21T08:14:38.053Z,52.80
2022-09-21T08:17:04.766Z,26.60
2022-09-21T08:19:31.595Z,24.10
2022-09-21T08:21:58.917Z,23.30
2022-09-21T08:24:28.615Z,14.90
2022-09-21T08:26:56.010Z,11.90
2022-09-21T08:29:24.696Z,14.90
2022-09-21T08:31:53.512Z,9.90
2022-09-21T08:34:20.368Z,1.70
2022-09-21T08:36:48.864Z,1.00
2022-09-21T08:39:18.510Z,1.00
2022-09-21T08:41:55.211Z,1.00
2022-09-21T08:44:29.704Z,1.00
2022-09-21T08:47:13.545Z,1.00
2022-09-21T08:49:44.893Z,1.00
2022-09-21T08:52:17.958Z,1.00
2022-09-21T08:54:59.046Z,1.00
2022-09-21T08:57:33.953Z,1.00
2022-09-21T09:00:02.521Z,1.00
2022-09-21T09:02:47.866Z,1.00
2022-09-21T09:05:39.499Z,1.00
2022-09-21T09:08:37.059Z,1.00
2022-09-21T09:11:18.136Z,1.00
2022-09-21T09:14:19.815Z,1.00
2022-09-21T09:17:21.636Z,1.00
2022-09-21T09:20:13.738Z,1.00
2022-09-21T09:22:45.216Z,1.00
2022-09-21T09:25:42.159Z,1.00
2022-09-21T09:28:27.276Z,1.00
2022-09-21T09:31:19.593Z,1.00
2022-09-21T09:33:52.895Z,1.00
2022-09-21T09:36:34.853Z,1.00
2022-09-21T09:39:13.335Z,1.00
2022-09-21T09:42:00.746Z,1.00
2022-09-21T09:44:55.465Z,1.00
2022-09-21T09:47:30.977Z,1.00
2022-09-21T09:50:06.658Z,1.00
2022-09-21T09:52:34.052Z,1.00
2022-09-21T09:55:02.663Z,1.00
2022-09-21T09:57:34.030Z,1.00
2022-09-21T10:00:09.214Z,1.00
2022-09-21T10:02:48.062Z,1.00
2022-09-21T10:05:25.503Z,1.00
2022-09-21T10:07:53.115Z,1.00
2022-09-21T10:10:28.586Z,1.00
2022-09-21T10:13:02.497Z,1.00
2022-09-21T10:15:29.760Z,1.00
2022-09-21T10:18:06.844Z,1.00
2022-09-21T10:20:33.852Z,1.00
2022-09-21T10:23:00.971Z,1.00
2022-09-21T10:25:27.762Z,1.00
2022-09-21T10:27:55.908Z,1.00
2022-09-21T10:30:36.093Z,1.00
2022-09-21T10:33:03.692Z,1.00
2022-09-21T10:35:30.552Z,1.00
2022-09-21T10:38:22.059Z,1.00
2022-09-21T10:40:50.155Z,1.00
2022-09-21T10:43:43.499Z,1.00
2022-09-21T10:46:11.634Z,1.00
2022-09-21T10:48:38.404Z,1.00
2022-09-21T10:51:05.324Z,1.00
2022-09-21T10:53:34.799Z,1.00
2022-09-21T10:56:20.687Z,1.00
2022-09-21T10:59:10.087Z,1.00
2022-09-21T11:01:42.591Z,1.00
2022-09-21T11:04:18.379Z,1.00
2022-09-21T11:06:49.351Z,1.00
2022-09-21T11:09:45.918Z,1.00
2022-09-21T11:12:49.014Z,1.00
2022-09-21T11:16:07.006Z,1.00
2022-09-21T11:18:46.946Z,1.00
2022-09-21T11:21:30.191Z,1.00
2022-09-21T11:24:19.814Z,1.00
2022-09-21T11:26:56.907Z,1.00
2022-09-21T11:29:38.332Z,1.00
2022-09-21T11:32:10.845Z,1.00
2022-09-21T11:34:54.615Z,1.00
2022-09-21T11:37:51.149Z,1.00
2022-09-21T11:40:39.723Z,1.00
2022-09-21T11:43:27.499Z,1.00
2022-09-21T11:46:20.534Z,1.00
2022-09-21T11:49:27.468Z,1.00
2022-09-21T11:52:06.147Z,1.00
2022-09-21T11:55:11.146Z,1.00
2022-09-21T11:58:10.125Z,1.00
2022-09-21T12:01:06.152Z,1.00
2022-09-21T12:04:11.049Z,1.00
2022-09-21T12:06:49.465Z,1.00
2022-09-21T12:09:50.289Z,1.00
2022-09-21T12:12:24.835Z,1.00
2022-09-21T12:15:00.390Z,1.00
2022-09-21T12:17:45.741Z,1.00
2022-09-21T12:20:31.202Z,1.00
2022-09-21T12:23:06.179Z,1.00
2022-09-21T12:25:38.109Z,1.00
2022-09-21T12:28:22.643Z,1.00
2022-09-21T12:31:01.622Z,1.00
2022-09-21T12:33:43.163Z,1.00
2022-09-21T12:36:32.715Z,1.00
2022-09-21T12:39:15.338Z,1.00
2022-09-21T12:41:55.547Z,1.00
2022-09-21T12:44:54.851Z,1.00
2022-09-21T12:47:34.142Z,1.00
2022-09-21T12:50:25.734Z,1.00
2022-09-21T12:52:53.897Z,1.00
2022-09-21T12:55:28.865Z,1.00
2022-09-21T12:58:15.557Z,1.00
2022-09-21T13:01:03.282Z,1.00
2022-09-21T13:03:36.151Z,1.00
2022-09-21T13:06:11.562Z,1.00
2022-09-21T13:08:46.947Z,1.00
2022-09-21T13:11:20.871Z,1.00
2022-09-21T13:13:53.343Z,1.00
2022-09-21T13:16:39.456Z,1.00
2022-09-21T13:19:21.580Z,1.00
2022-09-21T13:22:14.564Z,1.00
2022-09-21T13:24:42.877Z,1.00
2022-09-21T13:27:09.963Z,1.00
2022-09-21T13:29:40.278Z,1.00
2022-09-21T13:32:13.904Z,1.00
2022-09-21T13:34:42.599Z,1.00
2022-09-21T13:37:15.547Z,1.00
2022-09-21T13:39:50.375Z,1.00
2022-09-21T13:42:35.173Z,1.00
2022-09-21T13:45:15.313Z,1.00
2022-09-21T13:47:45.255Z,1.00
2022-09-21T13:50:45.116Z,1.00
2022-09-21T13:53:23.505Z,1.00
2022-09-21T13:55:53.860Z,1.00
2022-09-21T13:58:29.857Z,1.00
2022-09-21T14:01:00.451Z,1.00
2022-09-21T14:03:39.459Z,1.00
2022-09-21T14:06:08.580Z,1.00
2022-09-21T14:08:48.821Z,1.00
2022-09-21T14:11:23.893Z,1.00
2022-09-21T14:14:09.481Z,1.00
2022-09-21T14:16:39.817Z,1.00
2022-09-21T14:19:18.727Z,1.00
2022-09-21T14:22:04.044Z,1.00
2022-09-21T14:24:38.308Z,1.00
2022-09-21T14:27:51.991Z,1.00
2022-09-21T14:30:24.106Z,1.00
2022-09-21T14:33:03.204Z,1.00
2022-09-21T14:35:37.803Z,1.00
2022-09-21T14:38:26.533Z,1.00
2022-09-21T14:40:59.675Z,1.00
2022-09-21T14:43:35.225Z,1.00
2022-09-21T14:46:17.444Z,1.00
2022-09-21T14:49:13.073Z,1.00
2022-09-21T14:51:55.721Z,1.00
2022-09-21T14:55:08.144Z,1.00
2022-09-21T14:58:11.543Z,1.00
2022-09-21T15:00:43.770Z,1.00
2022-09-21T15:03:29.907Z,1.00
2022-09-21T15:06:28.262Z,1.00
2022-09-21T15:09:39.911Z,1.00
2022-09-21T15:12:17.108Z,1.00
2022-09-21T15:14:55.936Z,1.00
2022-09-21T15:17:29.806Z,1.00
2022-09-21T15:20:03.507Z,1.00
2022-09-21T15:22:31.932Z,1.00
2022-09-21T15:25:02.843Z,1.00
2022-09-21T15:27:33.078Z,1.00
2022-09-21T15:30:03.100Z,1.00
2022-09-21T15:32:42.299Z,1.00
2022-09-21T15:35:27.702Z,1.00
2022-09-21T15:37:56.153Z,1.00
2022-09-21T15:40:32.185Z,1.00
2022-09-21T15:43:04.600Z,1.00
2022-09-21T15:45:58.132Z,1.00
2022-09-21T15:48:26.098Z,1.00
2022-09-21T15:50:59.163Z,1.00
2022-09-21T15:53:30.278Z,1.00
2022-09-21T15:56:01.460Z,1.00
2022-09-21T15:58:37.423Z,1.00
2022-09-21T16:01:21.646Z,1.00
2022-09-21T16:03:51.981Z,1.00
2022-09-21T16:06:21.877Z,1.00
2022-09-21T16:08:48.673Z,1.00
2022-09-21T16:11:29.808Z,1.00
2022-09-21T16:14:29.949Z,1.00
2022-09-21T16:17:12.677Z,1.00
2022-09-21T16:19:50.806Z,1.00
2022-09-21T16:22:38.105Z,1.00
2022-09-21T16:25:30.010Z,1.00
2022-09-21T16:27:59.939Z,1.00
2022-09-21T16:30:58.938Z,1.00
2022-09-21T16:33:44.073Z,1.00
2022-09-21T16:36:22.142Z,1.00
2022-09-21T16:38:53.571Z,1.00
2022-09-21T16:41:22.108Z,1.00
2022-09-21T16:43:50.815Z,1.00
2022-09-21T16:46:18.644Z,1.00
2022-09-21T16:48:45.516Z,1.00
2022-09-21T16:51:14.395Z,1.00
2022-09-21T16:53:41.583Z,1.00
2022-09-21T16:56:14.714Z,1.00
2022-09-21T16:58:44.054Z,1.00
2022-09-21T17:01:18.722Z,1.00
2022-09-21T17:03:47.168Z,1.00
2022-09-21T17:06:21.882Z,1.00
2022-09-21T17:08:49.877Z,1.00
2022-09-21T17:11:19.876Z,1.00
2022-09-21T17:13:50.283Z,1.00
2022-09-21T17:16:19.209Z,1.00
2022-09-21T17:18:49.499Z,1.00
2022-09-21T17:21:17.098Z,1.00
2022-09-21T17:23:43.826Z,1.00
2022-09-21T17:26:17.935Z,1.00
2022-09-21T17:28:45.192Z,1.00
2022-09-21T17:31:13.870Z,1.00
2022-09-21T17:33:41.409Z,1.00
2022-09-21T17:36:14.071Z,1.00
2022-09-21T17:38:42.347Z,1.00
2022-09-21T17:41:36.636Z,1.00
2022-09-21T17:44:35.416Z,1.00
2022-09-21T17:47:28.370Z,1.00
2022-09-21T17:50:26.224Z,1.00
2022-09-21T17:53:13.286Z,1.00
2022-09-21T17:55:45.707Z,1.00
2022-09-21T17:58:21.315Z,1.00
2022-09-21T18:00:57.042Z,1.00
2022-09-21T18:03:26.004Z,1.00
2022-09-21T18:06:00.583Z,1.00
2022-09-21T18:08:36.090Z,1.00
2022-09-21T18:11:27.511Z,1.00
2022-09-21T18:14:36.121Z,1.00
2022-09-21T18:17:21.893Z,1.00
2022-09-21T18:20:27.298Z,1.00
2022-09-21T18:23:01.306Z,1.00
2022-09-21T18:25:36.055Z,1.00
2022-09-21T18:28:31.001Z,1.00
2022-09-21T18:31:41.451Z,1.00
2022-09-21T18:34:35.620Z,1.00
2022-09-21T18:37:31.358Z,1.00
2022-09-21T18:40:22.548Z,1.00
2022-09-21T18:43:01.976Z,1.00
2022-09-21T18:45:31.855Z,1.00
2022-09-21T18:48:16.662Z,1.00
2022-09-21T18:50:50.075Z,1.00
2022-09-21T18:53:41.687Z,1.00
2022-09-21T18:56:09.307Z,1.00
2022-09-21T18:58:36.544Z,1.00
2022-09-21T19:01:04.073Z,1.00
2022-09-21T19:03:31.457Z,1.00
2022-09-21T19:06:16.796Z,1.00
2022-09-21T19:08:53.583Z,1.00
2022-09-21T19:11:32.429Z,1.00
2022-09-21T19:14:35.095Z,1.20
2022-09-21T19:17:23.516Z,3.10
2022-09-21T19:20:03.680Z,5.20
2022-09-21T19:22:53.036Z,8.10
2022-09-21T19:25:30.159Z,42.10
2022-09-21T19:28:28.929Z,10.90
2022-09-21T19:31:02.135Z,42.30
2022-09-21T19:33:49.404Z,44.20
2022-09-21T19:36:17.556Z,45.20
2022-09-21T19:38:44.527Z,51.40
2022-09-21T19:41:55.335Z,50.30
2022-09-21T19:44:39.812Z,53.70
2022-09-21T19:47:20.098Z,54.70
2022-09-21T19:49:54.640Z,60.80
2022-09-21T19:52:31.714Z,60.70
2022-09-21T19:55:17.387Z,57.70
2022-09-21T19:58:03.031Z,55.40
2022-09-21T20:00:32.014Z,55.70
2022-09-21T20:03:05.736Z,60.60
2022-09-21T20:05:58.724Z,61.60
2022-09-21T20:08:50.554Z,62.00
2022-09-21T20:11:50.510Z,61.40
2022-09-21T20:14:32.842Z,60.50
2022-09-21T20:17:02.177Z,61.70
2022-09-21T20:19:57.973Z,61.80
2022-09-21T20:22:34.757Z,62.50
2022-09-21T20:25:26.053Z,61.90
2022-09-21T20:27:55.888Z,62.50
2022-09-21T20:30:26.084Z,64.40
2022-09-21T20:32:56.853Z,67.50
2022-09-21T20:35:26.307Z,66.30
2022-09-21T20:37:54.061Z,65.00
2022-09-21T20:40:28.721Z,64.10
2022-09-21T20:42:57.325Z,66.20
2022-09-21T20:45:24.934Z,67.20
2022-09-21T20:47:53.249Z,67.60
2022-09-21T20:50:20.608Z,68.30
2022-09-21T20:52:47.687Z,68.20
2022-09-21T20:55:17.360Z,66.70
2022-09-21T20:57:44.685Z,65.30
2022-09-21T21:00:14.381Z,69.60
2022-09-21T21:02:45.022Z,75.40
2022-09-21T21:05:11.849Z,80.20
2022-09-21T21:07:42.377Z,80.60
2022-09-21T21:10:13.239Z,79.20
2022-09-21T21:12:41.781Z,77.60
2022-09-21T21:15:09.588Z,80.10
2022-09-21T21:17:36.272Z,80.40
2022-09-21T21:20:04.292Z,76.50
2022-09-21T21:22:31.019Z,75.70
2022-09-21T21:24:57.763Z,74.50
2022-09-21T21:27:25.829Z,75.80
2022-09-21T21:29:54.414Z,78.90
2022-09-21T21:32:23.785Z,79.80
2022-09-21T21:34:51.898Z,82.70
2022-09-21T21:37:20.659Z,83.10
2022-09-21T21:39:47.780Z,82.20
2022-09-21T21:42:15.003Z,83.30
2022-09-21T21:44:41.719Z,81.00
2022-09-21T21:47:27.789Z,82.40
2022-09-21T21:49:55.083Z,85.00
2022-09-21T21:52:21.870Z,83.10
2022-09-21T21:54:48.582Z,83.00
2022-09-21T21:57:15.306Z,81.50
2022-09-21T21:59:43.174Z,82.10
2022-09-21T22:02:10.463Z,85.00
2022-09-21T22:04:37.453Z,86.50
2022-09-21T22:07:04.260Z,85.40
2022-09-21T22:09:31.022Z,85.40
2022-09-21T22:12:00.207Z,87.10
2022-09-21T22:14:27.268Z,88.80
2022-09-21T22:16:54.097Z,86.80
2022-09-21T22:19:20.904Z,84.60
2022-09-21T22:21:53.209Z,84.20
2022-09-21T22:24:21.458Z,83.20
2022-09-21T22:26:48.812Z,83.10
2022-09-21T22:29:17.188Z,83.30
2022-09-21T22:31:49.083Z,85.40
2022-09-21T22:34:17.144Z,86.50
2022-09-21T22:36:44.163Z,85.90
2022-09-21T22:39:12.096Z,87.50
2022-09-21T22:41:40.883Z,89.80
2022-09-21T22:44:08.742Z,89.70
2022-09-21T22:46:36.046Z,89.40
2022-09-21T22:49:02.959Z,88.10
2022-09-21T22:51:30.117Z,88.70
2022-09-21T22:53:57.492Z,89.40
2022-09-21T22:56:29.878Z,90.40
2022-09-21T22:58:58.944Z,90.90
2022-09-21T23:01:33.400Z,90.70
2022-09-21T23:04:02.670Z,90.20
2022-09-21T23:06:33.267Z,88.50
2022-09-21T23:09:02.048Z,89.20
2022-09-21T23:11:38.749Z,90.60
2022-09-21T23:14:05.760Z,91.00
2022-09-21T23:16:32.644Z,91.70
2022-09-21T23:18:59.802Z,91.80
2022-09-21T23:21:29.020Z,91.40
2022-09-21T23:23:59.742Z,91.00
2022-09-21T23:26:28.507Z,90.70
2022-09-21T23:28:57.399Z,90.80
2022-09-21T23:31:26.667Z,90.80
2022-09-21T23:33:55.772Z,90.80
2022-09-21T23:36:25.371Z,90.70
2022-09-21T23:38:52.262Z,91.30
2022-09-21T23:41:23.901Z,91.40
2022-09-21T23:43:51.108Z,91.20
2022-09-21T23:46:20.584Z,91.00
2022-09-21T23:48:47.713Z,91.40
2022-09-21T23:51:15.324Z,91.40
2022-09-21T23:53:42.614Z,91.50
2022-09-21T23:56:13.275Z,91.20
2022-09-21T23:58:40.386Z,90.70
